sensor_id;sensor_type;location;lat;lon;timestamp;pressure;altitude;pressure_sealevel;temperature;humidity
21240;BME280;10778;48.962;9.018;2023-04-20T00:02:10;99135.63;;;1.42;94.46
21240;BME280;10778;48.962;9.018;2023-04-20T00:04:40;99134.91;;;1.38;94.76
21240;BME280;10778;48.962;9.018;2023-04-20T00:07:06;99134.19;;;1.19;95.99
21240;BME280;10778;48.962;9.018;2023-04-20T00:09:32;99121.22;;;1.19;95.52
21240;BME280;10778;48.962;9.018;2023-04-20T00:11:58;99123.34;;;1.28;95.96
21240;BME280;10778;48.962;9.018;2023-04-20T00:14:24;99121.75;;;1.25;95.41
21240;BME280;10778;48.962;9.018;2023-04-20T00:16:50;99115.97;;;1.20;96.62
21240;BME280;10778;48.962;9.018;2023-04-20T00:19:16;99119.63;;;1.16;96.39
21240;BME280;10778;48.962;9.018;2023-04-20T00:21:42;99119.25;;;1.06;95.88
21240;BME280;10778;48.962;9.018;2023-04-20T00:24:09;99116.66;;;1.06;95.97
21240;BME280;10778;48.962;9.018;2023-04-20T00:26:35;99110.78;;;1.03;97.61
21240;BME280;10778;48.962;9.018;2023-04-20T00:29:02;99113.25;;;1.06;97.99
21240;BME280;10778;48.962;9.018;2023-04-20T00:31:30;99105.00;;;0.97;98.18
21240;BME280;10778;48.962;9.018;2023-04-20T00:33:56;99100.75;;;0.96;97.31
21240;BME280;10778;48.962;9.018;2023-04-20T00:36:22;99101.50;;;0.98;97.63
21240;BME280;10778;48.962;9.018;2023-04-20T00:38:48;99095.56;;;0.96;97.74
21240;BME280;10778;48.962;9.018;2023-04-20T00:41:14;99082.69;;;0.77;97.70
21240;BME280;10778;48.962;9.018;2023-04-20T00:43:53;99082.53;;;0.80;98.40
21240;BME280;10778;48.962;9.018;2023-04-20T00:46:20;99072.94;;;0.82;98.10
21240;BME280;10778;48.962;9.018;2023-04-20T00:48:51;99072.09;;;0.82;98.32
21240;BME280;10778;48.962;9.018;2023-04-20T00:51:19;99075.75;;;0.78;98.34
21240;BME280;10778;48.962;9.018;2023-04-20T00:53:46;99063.88;;;0.74;98.70
21240;BME280;10778;48.962;9.018;2023-04-20T00:56:13;99056.41;;;0.67;98.82
21240;BME280;10778;48.962;9.018;2023-04-20T00:58:41;99059.78;;;0.69;98.91
21240;BME280;10778;48.962;9.018;2023-04-20T01:01:09;99058.31;;;0.64;98.91
21240;BME280;10778;48.962;9.018;2023-04-20T01:03:36;99056.66;;;0.63;99.13
21240;BME280;10778;48.962;9.018;2023-04-20T01:06:02;99051.00;;;0.54;98.72
21240;BME280;10778;48.962;9.018;2023-04-20T01:08:29;99058.22;;;0.48;99.51
21240;BME280;10778;48.962;9.018;2023-04-20T01:10:55;99051.75;;;0.39;99.16
21240;BME280;10778;48.962;9.018;2023-04-20T01:13:22;99046.19;;;0.29;99.95
21240;BME280;10778;48.962;9.018;2023-04-20T01:15:48;99044.44;;;0.30;100.00
21240;BME280;10778;48.962;9.018;2023-04-20T01:18:15;99034.09;;;0.30;100.00
21240;BME280;10778;48.962;9.018;2023-04-20T01:20:44;99040.19;;;0.28;100.00
21240;BME280;10778;48.962;9.018;2023-04-20T01:23:11;99033.25;;;0.29;100.00
21240;BME280;10778;48.962;9.018;2023-04-20T01:25:37;99025.25;;;0.34;100.00
21240;BME280;10778;48.962;9.018;2023-04-20T01:28:04;99026.94;;;0.35;100.00
21240;BME280;10778;48.962;9.018;2023-04-20T01:30:32;99021.22;;;0.28;100.00
21240;BME280;10778;48.962;9.018;2023-04-20T01:32:58;99019.59;;;0.25;100.00
21240;BME280;10778;48.962;9.018;2023-04-20T01:35:25;99024.88;;;0.24;100.00
21240;BME280;10778;48.962;9.018;2023-04-20T01:37:51;99017.84;;;0.08;100.00
21240;BME280;10778;48.962;9.018;2023-04-20T01:40:17;99018.22;;;0.01;100.00
21240;BME280;10778;48.962;9.018;2023-04-20T01:42:43;99019.47;;;-0.08;100.00
21240;BME280;10778;48.962;9.018;2023-04-20T01:45:09;99009.75;;;-0.03;100.00
21240;BME280;10778;48.962;9.018;2023-04-20T01:47:35;99005.50;;;-0.04;100.00
21240;BME280;10778;48.962;9.018;2023-04-20T01:50:02;98997.88;;;-0.07;100.00
21240;BME280;10778;48.962;9.018;2023-04-20T01:52:28;99003.78;;;-0.23;100.00
21240;BME280;10778;48.962;9.018;2023-04-20T01:54:54;99002.81;;;-0.20;100.00
21240;BME280;10778;48.962;9.018;2023-04-20T01:57:20;98997.94;;;-0.09;100.00
21240;BME280;10778;48.962;9.018;2023-04-20T01:59:46;98994.84;;;-0.16;100.00
21240;BME280;10778;48.962;9.018;2023-04-20T02:02:12;98992.09;;;-0.12;100.00
21240;BME280;10778;48.962;9.018;2023-04-20T02:04:38;98987.53;;;-0.07;100.00
21240;BME280;10778;48.962;9.018;2023-04-20T02:07:06;98989.41;;;-0.11;100.00
21240;BME280;10778;48.962;9.018;2023-04-20T02:09:32;98985.09;;;-0.10;100.00
21240;BME280;10778;48.962;9.018;2023-04-20T02:11:58;98980.75;;;-0.10;100.00
21240;BME280;10778;48.962;9.018;2023-04-20T02:14:24;98977.25;;;-0.09;100.00
21240;BME280;10778;48.962;9.018;2023-04-20T02:16:50;98976.03;;;-0.19;100.00
21240;BME280;10778;48.962;9.018;2023-04-20T02:19:18;98974.50;;;-0.23;100.00
21240;BME280;10778;48.962;9.018;2023-04-20T02:21:44;98968.50;;;-0.24;100.00
21240;BME280;10778;48.962;9.018;2023-04-20T02:24:10;98966.97;;;-0.28;100.00
21240;BME280;10778;48.962;9.018;2023-04-20T02:26:36;98966.25;;;-0.32;100.00
21240;BME280;10778;48.962;9.018;2023-04-20T02:29:02;98959.56;;;-0.36;100.00
21240;BME280;10778;48.962;9.018;2023-04-20T02:31:28;98964.19;;;-0.43;100.00
21240;BME280;10778;48.962;9.018;2023-04-20T02:33:54;98960.91;;;-0.46;100.00
21240;BME280;10778;48.962;9.018;2023-04-20T02:36:20;98959.16;;;-0.46;100.00
21240;BME280;10778;48.962;9.018;2023-04-20T02:38:46;98952.84;;;-0.58;100.00
21240;BME280;10778;48.962;9.018;2023-04-20T02:41:13;98951.22;;;-0.60;100.00
21240;BME280;10778;48.962;9.018;2023-04-20T02:43:39;98948.84;;;-0.65;100.00
21240;BME280;10778;48.962;9.018;2023-04-20T02:46:06;98949.28;;;-0.74;100.00
21240;BME280;10778;48.962;9.018;2023-04-20T02:48:33;98948.38;;;-0.73;100.00
21240;BME280;10778;48.962;9.018;2023-04-20T02:51:00;98950.09;;;-0.74;100.00
21240;BME280;10778;48.962;9.018;2023-04-20T02:53:31;98937.25;;;-0.75;100.00
21240;BME280;10778;48.962;9.018;2023-04-20T02:56:13;98937.94;;;-0.72;100.00
21240;BME280;10778;48.962;9.018;2023-04-20T02:58:44;98937.53;;;-0.62;100.00
21240;BME280;10778;48.962;9.018;2023-04-20T03:01:20;98927.03;;;-0.59;100.00
21240;BME280;10778;48.962;9.018;2023-04-20T03:03:48;98929.38;;;-0.72;100.00
21240;BME280;10778;48.962;9.018;2023-04-20T03:06:14;98924.25;;;-0.74;100.00
21240;BME280;10778;48.962;9.018;2023-04-20T03:08:46;98922.38;;;-0.70;100.00
21240;BME280;10778;48.962;9.018;2023-04-20T03:11:39;98916.44;;;-0.72;100.00
21240;BME280;10778;48.962;9.018;2023-04-20T03:14:05;98924.06;;;-0.69;100.00
21240;BME280;10778;48.962;9.018;2023-04-20T03:16:31;98917.81;;;-0.65;100.00
21240;BME280;10778;48.962;9.018;2023-04-20T03:18:57;98916.66;;;-0.77;100.00
21240;BME280;10778;48.962;9.018;2023-04-20T03:21:24;98914.22;;;-0.80;100.00
21240;BME280;10778;48.962;9.018;2023-04-20T03:23:50;98920.22;;;-0.79;100.00
21240;BME280;10778;48.962;9.018;2023-04-20T03:26:17;98921.22;;;-0.82;100.00
21240;BME280;10778;48.962;9.018;2023-04-20T03:28:57;98920.97;;;-0.77;100.00
21240;BME280;10778;48.962;9.018;2023-04-20T03:31:25;98921.78;;;-0.75;100.00
21240;BME280;10778;48.962;9.018;2023-04-20T03:33:53;98924.19;;;-0.91;100.00
21240;BME280;10778;48.962;9.018;2023-04-20T03:36:19;98927.31;;;-1.04;100.00
21240;BME280;10778;48.962;9.018;2023-04-20T03:38:45;98930.41;;;-0.95;100.00
21240;BME280;10778;48.962;9.018;2023-04-20T03:41:11;98928.66;;;-0.95;100.00
21240;BME280;10778;48.962;9.018;2023-04-20T03:43:37;98929.44;;;-0.93;100.00
21240;BME280;10778;48.962;9.018;2023-04-20T03:46:03;98927.78;;;-0.94;100.00
21240;BME280;10778;48.962;9.018;2023-04-20T03:48:30;98925.88;;;-0.90;100.00
21240;BME280;10778;48.962;9.018;2023-04-20T03:50:56;98922.81;;;-0.98;100.00
21240;BME280;10778;48.962;9.018;2023-04-20T03:53:22;98929.56;;;-0.96;100.00
21240;BME280;10778;48.962;9.018;2023-04-20T03:55:48;98922.59;;;-0.94;100.00
21240;BME280;10778;48.962;9.018;2023-04-20T03:58:19;98929.50;;;-0.94;100.00
21240;BME280;10778;48.962;9.018;2023-04-20T04:01:08;98935.44;;;-0.92;100.00
21240;BME280;10778;48.962;9.018;2023-04-20T04:03:38;98930.63;;;-1.00;100.00
21240;BME280;10778;48.962;9.018;2023-04-20T04:06:04;98926.31;;;-0.99;100.00
21240;BME280;10778;48.962;9.018;2023-04-20T04:08:32;98923.72;;;-0.99;100.00
21240;BME280;10778;48.962;9.018;2023-04-20T04:10:59;98914.31;;;-1.01;100.00
21240;BME280;10778;48.962;9.018;2023-04-20T04:13:25;98916.88;;;-1.01;100.00
21240;BME280;10778;48.962;9.018;2023-04-20T04:15:51;98922.97;;;-1.02;100.00
21240;BME280;10778;48.962;9.018;2023-04-20T04:18:19;98919.72;;;-1.07;100.00
21240;BME280;10778;48.962;9.018;2023-04-20T04:20:46;98919.28;;;-1.17;100.00
21240;BME280;10778;48.962;9.018;2023-04-20T04:23:12;98920.97;;;-1.16;100.00
21240;BME280;10778;48.962;9.018;2023-04-20T04:25:43;98915.91;;;-1.17;100.00
21240;BME280;10778;48.962;9.018;2023-04-20T04:28:11;98921.16;;;-1.20;100.00
21240;BME280;10778;48.962;9.018;2023-04-20T04:30:46;98922.78;;;-1.18;100.00
21240;BME280;10778;48.962;9.018;2023-04-20T04:33:12;98918.94;;;-1.09;100.00
21240;BME280;10778;48.962;9.018;2023-04-20T04:35:41;98915.22;;;-1.02;100.00
21240;BME280;10778;48.962;9.018;2023-04-20T04:38:11;98918.75;;;-1.04;100.00
21240;BME280;10778;48.962;9.018;2023-04-20T04:40:38;98924.63;;;-1.01;100.00
21240;BME280;10778;48.962;9.018;2023-04-20T04:43:07;98918.97;;;-0.90;100.00
21240;BME280;10778;48.962;9.018;2023-04-20T04:45:37;98916.66;;;-0.77;100.00
21240;BME280;10778;48.962;9.018;2023-04-20T04:48:06;98907.59;;;-0.66;100.00
21240;BME280;10778;48.962;9.018;2023-04-20T04:50:32;98919.91;;;-0.54;100.00
21240;BME280;10778;48.962;9.018;2023-04-20T04:52:58;98903.47;;;0.19;100.00
21240;BME280;10778;48.962;9.018;2023-04-20T04:55:25;98902.81;;;0.67;97.71
21240;BME280;10778;48.962;9.018;2023-04-20T04:57:51;98910.56;;;1.17;95.21
21240;BME280;10778;48.962;9.018;2023-04-20T05:00:17;98902.75;;;1.81;92.63
21240;BME280;10778;48.962;9.018;2023-04-20T05:02:43;98895.72;;;2.28;88.48
21240;BME280;10778;48.962;9.018;2023-04-20T05:05:10;98897.78;;;2.52;86.56
21240;BME280;10778;48.962;9.018;2023-04-20T05:07:36;98895.44;;;3.05;83.30
21240;BME280;10778;48.962;9.018;2023-04-20T05:10:05;98898.84;;;3.20;81.97
21240;BME280;10778;48.962;9.018;2023-04-20T05:12:32;98902.50;;;3.73;81.01
21240;BME280;10778;48.962;9.018;2023-04-20T05:14:58;98897.63;;;3.81;79.37
21240;BME280;10778;48.962;9.018;2023-04-20T05:17:24;98891.91;;;4.29;79.08
21240;BME280;10778;48.962;9.018;2023-04-20T05:19:50;98889.06;;;4.58;78.26
21240;BME280;10778;48.962;9.018;2023-04-20T05:22:16;98895.97;;;4.46;76.25
21240;BME280;10778;48.962;9.018;2023-04-20T05:24:42;98896.75;;;4.86;75.23
21240;BME280;10778;48.962;9.018;2023-04-20T05:27:08;98896.53;;;5.02;74.57
21240;BME280;10778;48.962;9.018;2023-04-20T05:29:36;98901.53;;;5.05;73.90
21240;BME280;10778;48.962;9.018;2023-04-20T05:32:03;98907.03;;;5.13;72.92
21240;BME280;10778;48.962;9.018;2023-04-20T05:34:30;98900.91;;;5.01;72.37
21240;BME280;10778;48.962;9.018;2023-04-20T05:36:57;98905.53;;;5.22;73.11
21240;BME280;10778;48.962;9.018;2023-04-20T05:39:24;98900.69;;;5.17;71.55
21240;BME280;10778;48.962;9.018;2023-04-20T05:41:50;98891.00;;;5.44;72.18
21240;BME280;10778;48.962;9.018;2023-04-20T05:44:16;98895.16;;;5.09;72.79
21240;BME280;10778;48.962;9.018;2023-04-20T05:46:42;98892.38;;;5.61;72.69
21240;BME280;10778;48.962;9.018;2023-04-20T05:49:08;98887.88;;;5.63;69.62
21240;BME280;10778;48.962;9.018;2023-04-20T05:51:34;98891.97;;;5.54;71.50
21240;BME280;10778;48.962;9.018;2023-04-20T05:54:00;98889.88;;;5.59;71.25
21240;BME280;10778;48.962;9.018;2023-04-20T05:56:26;98890.50;;;5.98;70.62
21240;BME280;10778;48.962;9.018;2023-04-20T05:58:54;98897.25;;;5.90;70.54
21240;BME280;10778;48.962;9.018;2023-04-20T06:01:20;98890.03;;;5.93;71.78
21240;BME280;10778;48.962;9.018;2023-04-20T06:03:46;98886.88;;;6.82;69.27
21240;BME280;10778;48.962;9.018;2023-04-20T06:06:14;98891.63;;;7.00;68.08
21240;BME280;10778;48.962;9.018;2023-04-20T06:08:41;98884.66;;;7.45;66.79
21240;BME280;10778;48.962;9.018;2023-04-20T06:11:07;98885.56;;;7.55;67.61
21240;BME280;10778;48.962;9.018;2023-04-20T06:13:33;98884.06;;;7.30;66.97
21240;BME280;10778;48.962;9.018;2023-04-20T06:15:59;98881.50;;;7.07;67.27
21240;BME280;10778;48.962;9.018;2023-04-20T06:18:25;98882.91;;;7.22;68.17
21240;BME280;10778;48.962;9.018;2023-04-20T06:20:51;98876.41;;;7.49;69.71
21240;BME280;10778;48.962;9.018;2023-04-20T06:23:17;98875.25;;;8.60;64.63
21240;BME280;10778;48.962;9.018;2023-04-20T06:25:43;98872.91;;;8.57;63.82
21240;BME280;10778;48.962;9.018;2023-04-20T06:28:09;98867.03;;;8.74;63.73
21240;BME280;10778;48.962;9.018;2023-04-20T06:30:35;98870.94;;;8.80;64.85
21240;BME280;10778;48.962;9.018;2023-04-20T06:33:02;98868.25;;;9.01;64.46
21240;BME280;10778;48.962;9.018;2023-04-20T06:35:28;98863.84;;;9.11;63.49
21240;BME280;10778;48.962;9.018;2023-04-20T06:37:54;98866.28;;;9.54;62.34
21240;BME280;10778;48.962;9.018;2023-04-20T06:40:25;98855.75;;;9.93;61.65
21240;BME280;10778;48.962;9.018;2023-04-20T06:42:51;98851.75;;;9.89;60.24
21240;BME280;10778;48.962;9.018;2023-04-20T06:45:17;98857.78;;;10.09;60.75
21240;BME280;10778;48.962;9.018;2023-04-20T06:47:43;98848.00;;;10.02;60.98
21240;BME280;10778;48.962;9.018;2023-04-20T06:50:10;98854.59;;;10.25;59.15
21240;BME280;10778;48.962;9.018;2023-04-20T06:52:37;98852.44;;;10.59;58.54
21240;BME280;10778;48.962;9.018;2023-04-20T06:55:03;98847.19;;;10.87;57.27
21240;BME280;10778;48.962;9.018;2023-04-20T06:57:30;98855.16;;;11.05;57.05
21240;BME280;10778;48.962;9.018;2023-04-20T06:59:56;98854.91;;;10.70;57.82
21240;BME280;10778;48.962;9.018;2023-04-20T07:02:24;98853.00;;;10.62;58.59
21240;BME280;10778;48.962;9.018;2023-04-20T07:04:50;98851.94;;;10.83;58.78
21240;BME280;10778;48.962;9.018;2023-04-20T07:07:16;98847.69;;;10.72;58.05
21240;BME280;10778;48.962;9.018;2023-04-20T07:09:42;98853.31;;;10.39;57.76
21240;BME280;10778;48.962;9.018;2023-04-20T07:12:08;98844.78;;;10.75;57.93
21240;BME280;10778;48.962;9.018;2023-04-20T07:14:36;98850.59;;;10.21;59.81
21240;BME280;10778;48.962;9.018;2023-04-20T07:17:02;98853.34;;;10.30;60.22
21240;BME280;10778;48.962;9.018;2023-04-20T07:19:28;98844.03;;;10.83;59.08
21240;BME280;10778;48.962;9.018;2023-04-20T07:21:54;98842.41;;;10.44;59.47
21240;BME280;10778;48.962;9.018;2023-04-20T07:24:20;98836.66;;;10.59;60.07
21240;BME280;10778;48.962;9.018;2023-04-20T07:26:46;98836.66;;;11.15;58.12
21240;BME280;10778;48.962;9.018;2023-04-20T07:29:12;98832.56;;;10.46;58.52
21240;BME280;10778;48.962;9.018;2023-04-20T07:31:38;98840.75;;;10.23;61.33
21240;BME280;10778;48.962;9.018;2023-04-20T07:34:04;98834.59;;;10.05;61.62
21240;BME280;10778;48.962;9.018;2023-04-20T07:36:31;98835.84;;;11.14;58.87
21240;BME280;10778;48.962;9.018;2023-04-20T07:38:57;98835.75;;;11.78;63.83
21240;BME280;10778;48.962;9.018;2023-04-20T07:41:23;98828.38;;;11.28;59.20
21240;BME280;10778;48.962;9.018;2023-04-20T07:43:49;98825.84;;;11.54;58.85
21240;BME280;10778;48.962;9.018;2023-04-20T07:46:23;98829.44;;;12.07;60.52
21240;BME280;10778;48.962;9.018;2023-04-20T07:48:49;98821.03;;;12.38;56.00
21240;BME280;10778;48.962;9.018;2023-04-20T07:51:15;98824.31;;;12.67;55.38
21240;BME280;10778;48.962;9.018;2023-04-20T07:53:42;98829.59;;;12.67;55.33
21240;BME280;10778;48.962;9.018;2023-04-20T07:56:08;98830.84;;;12.55;54.84
21240;BME280;10778;48.962;9.018;2023-04-20T07:58:34;98818.81;;;12.95;54.24
21240;BME280;10778;48.962;9.018;2023-04-20T08:01:03;98818.63;;;12.54;56.39
21240;BME280;10778;48.962;9.018;2023-04-20T08:03:29;98818.88;;;12.69;56.11
21240;BME280;10778;48.962;9.018;2023-04-20T08:05:55;98817.69;;;12.28;53.90
21240;BME280;10778;48.962;9.018;2023-04-20T08:08:21;98825.06;;;11.07;58.43
21240;BME280;10778;48.962;9.018;2023-04-20T08:10:47;98818.72;;;12.09;56.53
21240;BME280;10778;48.962;9.018;2023-04-20T08:13:13;98814.34;;;12.52;55.32
21240;BME280;10778;48.962;9.018;2023-04-20T08:15:39;98816.84;;;12.97;54.61
21240;BME280;10778;48.962;9.018;2023-04-20T08:18:05;98809.13;;;13.20;53.20
21240;BME280;10778;48.962;9.018;2023-04-20T08:20:33;98814.34;;;12.95;53.38
21240;BME280;10778;48.962;9.018;2023-04-20T08:22:59;98810.59;;;13.23;53.68
21240;BME280;10778;48.962;9.018;2023-04-20T08:25:25;98808.84;;;13.48;53.68
21240;BME280;10778;48.962;9.018;2023-04-20T08:27:51;98807.50;;;13.28;52.63
21240;BME280;10778;48.962;9.018;2023-04-20T08:30:17;98811.72;;;12.52;55.45
21240;BME280;10778;48.962;9.018;2023-04-20T08:32:43;98803.38;;;12.39;54.64
21240;BME280;10778;48.962;9.018;2023-04-20T08:35:09;98802.34;;;12.66;53.64
21240;BME280;10778;48.962;9.018;2023-04-20T08:37:35;98804.22;;;11.69;56.67
21240;BME280;10778;48.962;9.018;2023-04-20T08:40:02;98807.56;;;11.97;55.52
21240;BME280;10778;48.962;9.018;2023-04-20T08:42:30;98806.03;;;12.13;54.94
21240;BME280;10778;48.962;9.018;2023-04-20T08:44:57;98804.84;;;11.44;56.20
21240;BME280;10778;48.962;9.018;2023-04-20T08:47:23;98805.53;;;11.28;58.24
21240;BME280;10778;48.962;9.018;2023-04-20T08:49:52;98809.38;;;10.60;59.16
21240;BME280;10778;48.962;9.018;2023-04-20T08:52:19;98806.22;;;9.99;60.34
21240;BME280;10778;48.962;9.018;2023-04-20T08:54:45;98808.72;;;9.90;61.82
21240;BME280;10778;48.962;9.018;2023-04-20T08:57:11;98807.81;;;9.62;64.53
21240;BME280;10778;48.962;9.018;2023-04-20T08:59:37;98811.53;;;9.49;64.27
21240;BME280;10778;48.962;9.018;2023-04-20T09:02:08;98806.94;;;9.81;63.28
21240;BME280;10778;48.962;9.018;2023-04-20T09:04:35;98809.03;;;9.48;64.08
21240;BME280;10778;48.962;9.018;2023-04-20T09:07:02;98799.47;;;9.66;64.25
21240;BME280;10778;48.962;9.018;2023-04-20T09:09:28;98806.69;;;9.25;65.65
21240;BME280;10778;48.962;9.018;2023-04-20T09:12:05;98809.84;;;9.19;66.60
21240;BME280;10778;48.962;9.018;2023-04-20T09:14:46;98802.69;;;9.21;65.01
21240;BME280;10778;48.962;9.018;2023-04-20T09:17:13;98806.69;;;9.25;64.93
21240;BME280;10778;48.962;9.018;2023-04-20T09:19:42;98810.34;;;8.93;66.96
21240;BME280;10778;48.962;9.018;2023-04-20T09:22:08;98813.88;;;8.72;68.39
21240;BME280;10778;48.962;9.018;2023-04-20T09:24:37;98811.34;;;8.61;69.64
21240;BME280;10778;48.962;9.018;2023-04-20T09:27:16;98801.31;;;8.35;69.97
21240;BME280;10778;48.962;9.018;2023-04-20T09:29:55;98807.63;;;8.32;70.62
21240;BME280;10778;48.962;9.018;2023-04-20T09:32:23;98796.09;;;8.45;71.32
21240;BME280;10778;48.962;9.018;2023-04-20T09:34:50;98797.19;;;8.42;71.73
21240;BME280;10778;48.962;9.018;2023-04-20T09:37:17;98794.91;;;8.28;71.51
21240;BME280;10778;48.962;9.018;2023-04-20T09:39:44;98795.38;;;8.33;73.53
21240;BME280;10778;48.962;9.018;2023-04-20T09:42:14;98794.56;;;8.42;72.62
21240;BME280;10778;48.962;9.018;2023-04-20T09:44:41;98796.19;;;8.33;72.56
21240;BME280;10778;48.962;9.018;2023-04-20T09:47:09;98789.06;;;8.14;72.36
21240;BME280;10778;48.962;9.018;2023-04-20T09:49:44;98792.88;;;8.10;74.30
21240;BME280;10778;48.962;9.018;2023-04-20T09:52:17;98793.44;;;8.35;73.93
21240;BME280;10778;48.962;9.018;2023-04-20T09:54:44;98806.91;;;7.99;76.12
21240;BME280;10778;48.962;9.018;2023-04-20T09:57:11;98800.47;;;7.82;74.94
21240;BME280;10778;48.962;9.018;2023-04-20T09:59:41;98803.53;;;7.87;75.75
21240;BME280;10778;48.962;9.018;2023-04-20T10:02:09;98800.00;;;7.98;76.41
21240;BME280;10778;48.962;9.018;2023-04-20T10:04:35;98803.69;;;7.95;77.29
21240;BME280;10778;48.962;9.018;2023-04-20T10:07:02;98791.38;;;8.07;77.65
21240;BME280;10778;48.962;9.018;2023-04-20T10:09:31;98789.31;;;8.11;75.61
21240;BME280;10778;48.962;9.018;2023-04-20T10:12:07;98791.75;;;8.24;73.74
21240;BME280;10778;48.962;9.018;2023-04-20T10:14:33;98790.38;;;7.99;73.36
21240;BME280;10778;48.962;9.018;2023-04-20T10:17:06;98790.13;;;8.33;72.49
21240;BME280;10778;48.962;9.018;2023-04-20T10:19:40;98789.13;;;8.03;71.53
21240;BME280;10778;48.962;9.018;2023-04-20T10:22:09;98791.63;;;8.04;71.99
21240;BME280;10778;48.962;9.018;2023-04-20T10:24:36;98782.03;;;7.93;70.85
21240;BME280;10778;48.962;9.018;2023-04-20T10:27:18;98779.69;;;7.90;70.74
21240;BME280;10778;48.962;9.018;2023-04-20T10:29:45;98775.50;;;8.09;71.52
21240;BME280;10778;48.962;9.018;2023-04-20T10:32:24;98771.59;;;8.24;70.97
21240;BME280;10778;48.962;9.018;2023-04-20T10:37:27;98761.97;;;8.66;68.56
21240;BME280;10778;48.962;9.018;2023-04-20T10:39:53;98759.22;;;8.67;68.61
21240;BME280;10778;48.962;9.018;2023-04-20T10:42:19;98753.97;;;8.77;68.37
21240;BME280;10778;48.962;9.018;2023-04-20T10:44:50;98747.34;;;8.63;68.85
21240;BME280;10778;48.962;9.018;2023-04-20T10:47:17;98752.41;;;8.55;68.53
21240;BME280;10778;48.962;9.018;2023-04-20T10:49:51;98738.38;;;8.66;69.79
21240;BME280;10778;48.962;9.018;2023-04-20T10:52:17;98742.66;;;8.67;69.72
21240;BME280;10778;48.962;9.018;2023-04-20T10:54:43;98733.53;;;8.30;69.98
21240;BME280;10778;48.962;9.018;2023-04-20T10:57:15;98731.00;;;8.19;69.44
21240;BME280;10778;48.962;9.018;2023-04-20T10:59:41;98721.13;;;8.32;69.98
21240;BME280;10778;48.962;9.018;2023-04-20T11:02:07;98719.59;;;8.30;70.57
21240;BME280;10778;48.962;9.018;2023-04-20T11:04:35;98711.81;;;8.49;69.51
21240;BME280;10778;48.962;9.018;2023-04-20T11:07:08;98704.97;;;8.68;68.90
21240;BME280;10778;48.962;9.018;2023-04-20T11:09:36;98709.31;;;8.48;68.86
21240;BME280;10778;48.962;9.018;2023-04-20T11:12:07;98711.69;;;8.20;68.94
21240;BME280;10778;48.962;9.018;2023-04-20T11:14:38;98713.91;;;8.15;70.17
21240;BME280;10778;48.962;9.018;2023-04-20T11:17:15;98723.28;;;8.17;71.31
21240;BME280;10778;48.962;9.018;2023-04-20T11:19:41;98717.16;;;8.07;70.07
21240;BME280;10778;48.962;9.018;2023-04-20T11:22:07;98709.19;;;8.08;71.54
21240;BME280;10778;48.962;9.018;2023-04-20T11:24:33;98723.09;;;7.78;70.88
21240;BME280;10778;48.962;9.018;2023-04-20T11:27:01;98714.44;;;7.56;70.37
21240;BME280;10778;48.962;9.018;2023-04-20T11:29:36;98722.84;;;7.38;70.19
21240;BME280;10778;48.962;9.018;2023-04-20T11:32:05;98724.47;;;7.51;69.71
21240;BME280;10778;48.962;9.018;2023-04-20T11:34:32;98721.63;;;7.43;69.95
21240;BME280;10778;48.962;9.018;2023-04-20T11:37:09;98720.28;;;7.48;70.67
21240;BME280;10778;48.962;9.018;2023-04-20T11:39:38;98720.44;;;7.47;69.88
21240;BME280;10778;48.962;9.018;2023-04-20T11:42:04;98725.69;;;7.47;70.79
21240;BME280;10778;48.962;9.018;2023-04-20T11:44:30;98728.59;;;7.32;71.57
21240;BME280;10778;48.962;9.018;2023-04-20T11:46:57;98743.59;;;7.30;72.14
21240;BME280;10778;48.962;9.018;2023-04-20T11:49:26;98737.09;;;7.24;73.12
21240;BME280;10778;48.962;9.018;2023-04-20T11:51:52;98740.84;;;7.32;74.35
21240;BME280;10778;48.962;9.018;2023-04-20T11:54:18;98748.00;;;7.30;74.81
21240;BME280;10778;48.962;9.018;2023-04-20T11:56:45;98745.41;;;7.51;75.01
21240;BME280;10778;48.962;9.018;2023-04-20T11:59:11;98751.91;;;7.35;76.72
21240;BME280;10778;48.962;9.018;2023-04-20T12:01:39;98743.97;;;7.25;77.97
21240;BME280;10778;48.962;9.018;2023-04-20T12:04:05;98744.03;;;7.35;78.62
21240;BME280;10778;48.962;9.018;2023-04-20T12:06:32;98742.31;;;7.24;78.79
21240;BME280;10778;48.962;9.018;2023-04-20T12:09:00;98740.13;;;7.30;80.48
21240;BME280;10778;48.962;9.018;2023-04-20T12:11:26;98747.19;;;7.29;84.00
21240;BME280;10778;48.962;9.018;2023-04-20T12:13:52;98740.19;;;7.18;81.03
21240;BME280;10778;48.962;9.018;2023-04-20T12:16:19;98738.38;;;7.30;81.97
21240;BME280;10778;48.962;9.018;2023-04-20T12:18:46;98734.72;;;7.21;84.67
21240;BME280;10778;48.962;9.018;2023-04-20T12:21:12;98724.00;;;7.24;87.13
21240;BME280;10778;48.962;9.018;2023-04-20T12:23:38;98724.69;;;7.26;87.74
21240;BME280;10778;48.962;9.018;2023-04-20T12:26:04;98726.53;;;7.15;86.65
21240;BME280;10778;48.962;9.018;2023-04-20T12:28:31;98728.50;;;7.01;86.80
21240;BME280;10778;48.962;9.018;2023-04-20T12:30:58;98740.03;;;6.98;89.22
21240;BME280;10778;48.962;9.018;2023-04-20T12:33:24;98732.09;;;6.89;90.90
21240;BME280;10778;48.962;9.018;2023-04-20T12:35:50;98731.75;;;6.82;89.35
21240;BME280;10778;48.962;9.018;2023-04-20T12:38:16;98725.94;;;7.11;95.65
21240;BME280;10778;48.962;9.018;2023-04-20T12:40:42;98721.88;;;6.86;89.77
21240;BME280;10778;48.962;9.018;2023-04-20T12:43:08;98727.34;;;6.82;92.04
21240;BME280;10778;48.962;9.018;2023-04-20T12:45:35;98715.22;;;7.78;99.01
21240;BME280;10778;48.962;9.018;2023-04-20T12:48:01;98711.59;;;8.31;87.77
21240;BME280;10778;48.962;9.018;2023-04-20T12:50:27;98706.69;;;8.48;85.28
21240;BME280;10778;48.962;9.018;2023-04-20T12:52:53;98703.19;;;8.78;86.57
21240;BME280;10778;48.962;9.018;2023-04-20T12:55:21;98690.91;;;9.08;84.01
21240;BME280;10778;48.962;9.018;2023-04-20T12:57:47;98687.31;;;8.70;83.83
21240;BME280;10778;48.962;9.018;2023-04-20T13:00:14;98683.44;;;9.23;83.78
21240;BME280;10778;48.962;9.018;2023-04-20T13:02:40;98683.84;;;8.89;82.70
21240;BME280;10778;48.962;9.018;2023-04-20T13:05:07;98672.13;;;8.84;79.85
21240;BME280;10778;48.962;9.018;2023-04-20T13:07:33;98682.72;;;8.11;82.27